createdAt,value
2022-09-05T00:00:19.610Z,9.80
2022-09-05T00:03:23.849Z,10.30
2022-09-05T00:06:11.669Z,9.70
2022-09-05T00:09:11.617Z,9.90
2022-09-05T00:12:00.780Z,10.80
2022-09-05T00:15:20.012Z,9.60
2022-09-05T00:20:16.815Z,9.50
2022-09-05T00:24:36.644Z,9.50
2022-09-05T00:25:35.054Z,9.40
2022-09-05T00:28:48.810Z,9.40
2022-09-05T00:31:55.129Z,9.40
2022-09-05T00:35:00.628Z,9.30
2022-09-05T00:37:49.173Z,9.30
2022-09-05T00:40:45.419Z,9.70
2022-09-05T00:43:39.032Z,9.20
2022-09-05T00:46:32.623Z,9.20
2022-09-05T00:49:29.841Z,9.20
2022-09-05T00:52:38.911Z,9.10
2022-09-05T00:55:58.931Z,9.10
2022-09-05T00:59:20.753Z,9.20
2022-09-05T01:02:51.970Z,9.00
2022-09-05T01:05:59.900Z,9.00
2022-09-05T01:09:08.102Z,8.50
2022-09-05T01:12:40.854Z,8.90
2022-09-05T01:16:04.300Z,8.30
2022-09-05T01:19:08.730Z,8.60
2022-09-05T01:22:29.553Z,8.90
2022-09-05T01:25:33.365Z,8.80
2022-09-05T01:29:17.164Z,8.80
2022-09-05T01:31:53.564Z,9.00
2022-09-05T01:35:24.727Z,9.00
2022-09-05T01:39:05.666Z,8.70
2022-09-05T01:42:03.260Z,8.70
2022-09-05T01:45:16.143Z,8.60
2022-09-05T01:48:08.727Z,8.60
2022-09-05T01:51:29.272Z,8.60
2022-09-05T01:54:49.500Z,8.60
2022-09-05T01:57:48.837Z,8.60
2022-09-05T02:01:26.643Z,8.60
2022-09-05T02:04:46.989Z,8.50
2022-09-05T02:07:44.844Z,8.40
2022-09-05T02:10:42.938Z,8.40
2022-09-05T02:13:45.092Z,8.40
2022-09-05T02:16:44.727Z,8.40
2022-09-05T02:19:31.877Z,8.00
2022-09-05T02:22:28.306Z,8.30
2022-09-05T02:26:00.689Z,8.30
2022-09-05T02:28:45.795Z,8.30
2022-09-05T02:32:02.298Z,8.30
2022-09-05T02:35:02.221Z,8.30
2022-09-05T02:40:37.675Z,8.20
2022-09-05T02:45:14.918Z,8.20
2022-09-05T02:45:18.802Z,8.10
2022-09-05T02:48:15.327Z,8.00
2022-09-05T02:57:29.510Z,8.30
2022-09-05T02:57:36.856Z,8.00
2022-09-05T02:58:17.869Z,8.00
2022-09-05T03:01:49.628Z,8.00
2022-09-05T03:04:38.371Z,8.00
2022-09-05T03:07:58.003Z,7.90
2022-09-05T03:11:02.381Z,7.90
2022-09-05T03:14:02.736Z,7.50
2022-09-05T03:17:23.949Z,7.90
2022-09-05T03:20:27.922Z,7.80
2022-09-05T03:23:23.094Z,7.80
2022-09-05T03:26:31.421Z,7.80
2022-09-05T03:29:44.454Z,7.80
2022-09-05T03:32:49.159Z,7.80
2022-09-05T03:35:47.956Z,7.70
2022-09-05T03:38:51.724Z,7.70
2022-09-05T03:41:44.010Z,7.60
2022-09-05T03:44:44.943Z,7.70
2022-09-05T03:47:58.420Z,7.70
2022-09-05T03:57:10.526Z,7.70
2022-09-05T03:57:22.793Z,7.80
2022-09-05T03:58:08.214Z,7.80
2022-09-05T04:04:47.532Z,7.80
2022-09-05T04:08:13.869Z,7.80
2022-09-05T04:08:15.117Z,7.80
2022-09-05T04:10:55.406Z,7.90
2022-09-05T04:13:57.111Z,7.90
2022-09-05T04:16:49.961Z,7.60
2022-09-05T04:19:35.643Z,8.10
2022-09-05T04:22:43.985Z,8.90
2022-09-05T04:25:56.910Z,9.20
2022-09-05T04:29:15.539Z,10.20
2022-09-05T04:32:19.983Z,10.90
2022-09-05T04:35:27.253Z,11.60
2022-09-05T04:38:18.914Z,12.50
2022-09-05T04:41:20.332Z,13.90
2022-09-05T04:44:59.120Z,15.40
2022-09-05T04:47:52.375Z,16.30
2022-09-05T04:51:04.052Z,16.30
2022-09-05T04:54:24.093Z,17.40
2022-09-05T04:57:34.474Z,18.70
2022-09-05T05:06:03.161Z,20.70
2022-09-05T05:06:19.941Z,22.90
2022-09-05T05:07:07.526Z,24.80
2022-09-05T05:10:33.341Z,26.30
2022-09-05T05:18:00.362Z,27.40
2022-09-05T05:18:12.954Z,28.60
2022-09-05T05:20:40.091Z,29.60
2022-09-05T05:23:17.471Z,30.60
2022-09-05T05:26:08.589Z,31.20
2022-09-05T05:29:06.322Z,31.90
2022-09-05T05:31:54.942Z,32.50
2022-09-05T05:34:47.112Z,33.20
2022-09-05T05:37:41.327Z,33.80
2022-09-05T05:40:41.247Z,34.40
2022-09-05T05:43:36.263Z,34.80
2022-09-05T05:46:43.129Z,35.10
2022-09-05T05:49:56.106Z,35.40
2022-09-05T05:53:36.346Z,35.80
2022-09-05T05:56:40.595Z,36.20
2022-09-05T05:59:56.586Z,36.80
2022-09-05T06:03:27.799Z,37.20
2022-09-05T06:06:55.454Z,37.70
2022-09-05T06:14:51.435Z,37.80
2022-09-05T06:14:56.051Z,38.00
2022-09-05T06:16:50.141Z,38.30
2022-09-05T06:22:07.083Z,38.30
2022-09-05T06:23:11.664Z,38.30
2022-09-05T06:26:18.303Z,38.20
2022-09-05T06:29:34.528Z,38.00
2022-09-05T06:32:50.192Z,37.50
2022-09-05T06:36:07.282Z,37.30
2022-09-05T06:39:02.378Z,36.80
2022-09-05T06:42:10.171Z,36.20
2022-09-05T06:45:31.004Z,35.80
2022-09-05T06:48:45.903Z,35.40
2022-09-05T06:52:01.075Z,34.70
2022-09-05T06:55:33.558Z,32.00
2022-09-05T06:58:51.187Z,29.60
2022-09-05T07:02:01.336Z,27.70
2022-09-05T07:05:36.892Z,26.10
2022-09-05T07:08:35.631Z,25.00
2022-09-05T07:11:32.022Z,24.20
2022-09-05T07:14:49.780Z,23.70
2022-09-05T07:17:53.824Z,23.40
2022-09-05T07:21:04.649Z,23.10
2022-09-05T07:24:06.401Z,22.90
2022-09-05T07:26:59.602Z,22.70
2022-09-05T07:30:00.703Z,22.50
2022-09-05T07:32:53.611Z,22.30
2022-09-05T07:35:42.156Z,22.00
2022-09-05T07:38:48.321Z,21.90
2022-09-05T07:41:39.682Z,21.80
2022-09-05T07:44:56.563Z,21.80
2022-09-05T07:48:05.889Z,21.80
2022-09-05T07:55:22.066Z,21.70
2022-09-05T07:57:10.576Z,21.70
2022-09-05T07:57:50.222Z,21.40
2022-09-05T08:00:38.795Z,21.30
2022-09-05T08:03:27.813Z,21.30
2022-09-05T08:07:45.503Z,21.10
2022-09-05T08:10:09.268Z,20.90
2022-09-05T08:13:23.450Z,21.40
2022-09-05T08:16:20.094Z,20.80
2022-09-05T08:19:30.119Z,20.50
2022-09-05T08:22:21.697Z,20.60
2022-09-05T08:25:14.728Z,20.70
2022-09-05T08:28:39.997Z,20.60
2022-09-05T08:31:42.360Z,20.80
2022-09-05T08:34:45.129Z,20.70
2022-09-05T08:37:32.715Z,20.70
2022-09-05T08:40:42.144Z,20.60
2022-09-05T08:46:40.902Z,20.60
2022-09-05T08:46:58.047Z,20.30
2022-09-05T08:49:55.397Z,20.10
2022-09-05T08:53:45.338Z,20.10
2022-09-05T08:56:44.651Z,20.00
2022-09-05T09:00:18.486Z,20.00
2022-09-05T09:03:29.020Z,20.00
2022-09-05T09:06:26.907Z,20.10
2022-09-05T09:09:20.068Z,20.20
2022-09-05T09:12:21.031Z,20.10
2022-09-05T09:15:12.964Z,19.90
2022-09-05T09:17:59.124Z,19.80
2022-09-05T09:21:00.485Z,19.80
2022-09-05T09:23:53.039Z,19.70
2022-09-05T09:26:51.198Z,19.70
2022-09-05T09:29:42.370Z,19.60
2022-09-05T09:32:29.413Z,19.60
2022-09-05T09:35:27.283Z,19.60
2022-09-05T09:38:37.770Z,19.60
2022-09-05T09:41:31.957Z,19.50
2022-09-05T09:44:55.682Z,19.40
2022-09-05T09:47:49.366Z,19.40
2022-09-05T09:51:08.617Z,19.50
2022-09-05T09:53:54.367Z,19.50
2022-09-05T09:56:57.803Z,19.80
2022-09-05T10:00:13.844Z,19.50
2022-09-05T10:10:32.774Z,19.60
2022-09-05T10:10:54.448Z,19.80
2022-09-05T10:11:00.445Z,19.60
2022-09-05T10:13:51.427Z,20.10
2022-09-05T10:17:11.059Z,20.30
2022-09-05T10:20:38.222Z,20.50
2022-09-05T10:23:45.943Z,20.90
2022-09-05T10:27:01.493Z,21.30
2022-09-05T10:30:06.407Z,21.50
2022-09-05T10:35:07.490Z,21.70
2022-09-05T10:36:36.983Z,21.60
2022-09-05T10:39:26.743Z,21.50
2022-09-05T10:42:34.152Z,21.20
2022-09-05T10:45:47.106Z,20.70
2022-09-05T10:48:35.870Z,20.40
2022-09-05T10:51:29.826Z,20.10
2022-09-05T10:54:38.042Z,19.70
2022-09-05T10:57:40.157Z,19.60
2022-09-05T11:02:19.454Z,19.60
2022-09-05T11:04:29.247Z,19.60
2022-09-05T11:07:34.754Z,19.60
2022-09-05T11:10:31.444Z,19.70
2022-09-05T11:13:50.199Z,19.90
2022-09-05T11:16:50.680Z,20.50
2022-09-05T11:19:42.866Z,20.40
2022-09-05T11:22:36.436Z,20.70
2022-09-05T11:25:40.494Z,20.80
2022-09-05T11:29:00.768Z,20.90
2022-09-05T11:35:39.224Z,21.20
2022-09-05T11:39:57.848Z,21.40
2022-09-05T11:40:03.624Z,21.60
2022-09-05T11:42:20.990Z,21.50
2022-09-05T11:45:54.251Z,21.20
2022-09-05T11:49:17.840Z,21.10
2022-09-05T11:52:43.695Z,20.90
2022-09-05T11:55:44.361Z,20.90
2022-09-05T11:59:06.729Z,20.90
2022-09-05T12:02:26.387Z,21.00
2022-09-05T12:05:50.216Z,21.10
2022-09-05T12:09:02.298Z,21.10
2022-09-05T12:12:38.571Z,21.00
2022-09-05T12:15:37.708Z,21.10
2022-09-05T12:18:57.890Z,21.50
2022-09-05T12:27:38.321Z,21.90
2022-09-05T12:29:27.795Z,21.50
2022-09-05T12:34:25.505Z,20.90
2022-09-05T12:36:12.759Z,20.30
2022-09-05T12:41:32.124Z,19.90
2022-09-05T12:41:41.391Z,21.70
2022-09-05T12:44:37.448Z,19.60
2022-09-05T12:46:24.772Z,19.60
2022-09-05T12:49:36.331Z,19.60
2022-09-05T12:52:33.701Z,19.80
2022-09-05T12:55:32.554Z,20.00
2022-09-05T13:02:45.317Z,19.90
2022-09-05T13:03:10.946Z,19.90
2022-09-05T13:05:02.008Z,19.90
2022-09-05T13:07:56.256Z,19.60
2022-09-05T13:14:46.606Z,19.60
2022-09-05T13:14:59.902Z,19.80
2022-09-05T13:17:07.735Z,19.40
2022-09-05T13:19:55.123Z,19.20
2022-09-05T13:22:48.821Z,19.20
2022-09-05T13:25:37.036Z,19.60
2022-09-05T13:28:26.343Z,19.20
2022-09-05T13:37:54.980Z,19.90
2022-09-05T13:37:59.205Z,19.30
2022-09-05T13:38:16.417Z,19.30
2022-09-05T13:40:58.186Z,19.30
2022-09-05T13:43:43.965Z,19.30
2022-09-05T13:46:57.401Z,19.20
2022-09-05T13:50:04.906Z,19.20
2022-09-05T13:53:26.225Z,19.10
2022-09-05T13:56:33.128Z,19.10
2022-09-05T13:59:21.484Z,19.10
2022-09-05T14:03:30.077Z,19.00
2022-09-05T14:06:32.806Z,19.00
2022-09-05T14:09:43.099Z,19.00
2022-09-05T14:12:29.437Z,19.00
2022-09-05T14:15:52.341Z,19.00
2022-09-05T14:19:04.302Z,19.00
2022-09-05T14:21:50.408Z,18.90
2022-09-05T14:24:50.129Z,18.90
2022-09-05T14:27:45.914Z,18.80
2022-09-05T14:32:32.595Z,18.80
2022-09-05T14:37:44.561Z,18.70
2022-09-05T14:38:01.446Z,18.60
2022-09-05T14:40:44.677Z,18.60
2022-09-05T14:43:37.641Z,18.60
2022-09-05T14:46:20.094Z,18.70
2022-09-05T14:48:57.261Z,18.80
2022-09-05T14:51:30.271Z,18.80
2022-09-05T14:54:10.261Z,18.80
2022-09-05T14:59:14.050Z,18.70
2022-09-05T15:02:49.659Z,18.70
2022-09-05T15:02:58.394Z,18.60
2022-09-05T15:05:29.120Z,18.50
2022-09-05T15:08:33.244Z,18.50
2022-09-05T15:12:24.137Z,18.50
2022-09-05T15:14:03.422Z,18.50
2022-09-05T15:16:38.634Z,18.50
2022-09-05T15:19:09.088Z,18.50
2022-09-05T15:21:41.395Z,18.50
2022-09-05T15:24:26.778Z,18.30
2022-09-05T15:27:01.961Z,18.20
2022-09-05T15:29:34.377Z,18.70
2022-09-05T15:32:21.324Z,18.30
2022-09-05T15:34:50.264Z,18.10
2022-09-05T15:37:37.166Z,18.00
2022-09-05T15:40:23.232Z,18.00
2022-09-05T15:42:57.921Z,17.90
2022-09-05T15:45:35.435Z,17.90
2022-09-05T15:48:06.556Z,17.80
2022-09-05T15:50:46.740Z,17.80
2022-09-05T15:53:23.127Z,17.80
2022-09-05T15:55:59.838Z,17.70
2022-09-05T15:58:52.325Z,17.70
2022-09-05T16:01:48.525Z,17.60
2022-09-05T16:10:26.744Z,17.50
2022-09-05T16:10:33.839Z,17.70
2022-09-05T16:10:38.772Z,17.40
2022-09-05T16:12:44.671Z,17.30
2022-09-05T16:19:42.538Z,17.30
2022-09-05T16:23:16.961Z,17.20
2022-09-05T16:23:32.506Z,16.40
2022-09-05T16:24:05.121Z,17.10
2022-09-05T16:26:43.862Z,17.40
2022-09-05T16:29:26.081Z,16.90
2022-09-05T16:31:59.896Z,16.90
2022-09-05T16:34:35.852Z,16.90
2022-09-05T16:37:15.792Z,16.70
2022-09-05T16:39:59.853Z,16.70
2022-09-05T16:42:47.056Z,16.60
2022-09-05T16:45:33.313Z,16.60
2022-09-05T16:48:30.913Z,16.50
2022-09-05T16:51:34.853Z,16.40
2022-09-05T16:54:21.826Z,16.30
2022-09-05T16:56:56.564Z,16.20
2022-09-05T16:59:28.561Z,16.20
2022-09-05T17:02:11.039Z,16.50
2022-09-05T17:05:03.086Z,16.00
2022-09-05T17:08:01.604Z,16.00
2022-09-05T17:10:33.997Z,15.90
2022-09-05T17:13:03.060Z,15.80
2022-09-05T17:15:36.320Z,15.70
2022-09-05T17:18:22.046Z,15.60
2022-09-05T17:20:56.808Z,15.50
2022-09-05T17:29:19.599Z,15.40
2022-09-05T17:29:23.472Z,15.30
2022-09-05T17:31:23.739Z,15.20
2022-09-05T17:32:54.057Z,15.10
2022-09-05T17:35:33.166Z,15.00
2022-09-05T17:38:24.158Z,14.90
2022-09-05T17:40:55.379Z,14.80
2022-09-05T17:43:36.512Z,14.80
2022-09-05T17:46:24.290Z,14.70
2022-09-05T17:49:18.449Z,14.60
2022-09-05T17:51:51.032Z,14.60
2022-09-05T17:54:28.087Z,15.20
2022-09-05T17:56:55.186Z,14.40
2022-09-05T17:59:28.342Z,14.40
2022-09-05T18:02:07.883Z,14.30
2022-09-05T18:04:46.938Z,14.20
2022-09-05T18:07:25.981Z,14.20
2022-09-05T18:10:14.661Z,14.10
2022-09-05T18:13:13.158Z,14.30
2022-09-05T18:15:39.677Z,14.10
2022-09-05T18:18:24.294Z,13.90
2022-09-05T18:21:21.741Z,13.80
2022-09-05T18:24:07.862Z,13.70
2022-09-05T18:26:46.615Z,13.70
2022-09-05T18:29:37.171Z,13.60
2022-09-05T18:32:12.596Z,13.60
2022-09-05T18:34:42.761Z,13.50
2022-09-05T18:37:46.699Z,13.50
2022-09-05T18:40:37.224Z,13.40
2022-09-05T18:43:12.476Z,13.70
2022-09-05T18:45:52.828Z,13.40
2022-09-05T18:48:29.053Z,13.30
2022-09-05T18:51:15.074Z,13.30
2022-09-05T18:53:47.945Z,13.80
2022-09-05T18:57:19.943Z,13.10
2022-09-05T18:59:35.673Z,13.10
2022-09-05T19:02:26.925Z,13.00
2022-09-05T19:05:14.340Z,13.00
2022-09-05T19:07:59.449Z,13.00
2022-09-05T19:10:34.510Z,12.90
2022-09-05T19:13:13.525Z,13.10
2022-09-05T19:15:48.189Z,12.90
2022-09-05T19:18:26.066Z,12.80
2022-09-05T19:21:22.156Z,12.80
2022-09-05T19:24:06.974Z,12.80
2022-09-05T19:26:34.514Z,12.70
2022-09-05T19:36:44.396Z,12.60
2022-09-05T19:37:07.117Z,12.60
2022-09-05T19:37:13.893Z,12.60
2022-09-05T19:37:42.765Z,12.50
2022-09-05T19:47:29.616Z,12.50
2022-09-05T19:47:33.797Z,12.50
2022-09-05T19:47:33.800Z,12.40
2022-09-05T19:49:09.064Z,12.40
2022-09-05T19:51:37.839Z,12.30
2022-09-05T19:54:06.009Z,12.30
2022-09-05T19:56:38.633Z,12.30
2022-09-05T19:59:34.431Z,12.20
2022-09-05T20:02:02.932Z,12.20
2022-09-05T20:04:44.256Z,12.10
2022-09-05T20:07:23.629Z,12.10
2022-09-05T20:09:53.067Z,12.00
2022-09-05T20:12:31.169Z,12.00
2022-09-05T20:15:19.054Z,11.90
2022-09-05T20:17:46.265Z,11.90
2022-09-05T20:20:27.997Z,11.80
2022-09-05T20:23:01.946Z,11.80
2022-09-05T20:25:41.612Z,11.80
2022-09-05T20:28:12.251Z,11.70
2022-09-05T20:30:46.093Z,11.70
2022-09-05T20:33:22.849Z,11.70
2022-09-05T20:41:58.876Z,11.60
2022-09-05T20:43:22.840Z,11.60
2022-09-05T20:43:29.713Z,11.60
2022-09-05T20:44:48.303Z,11.60
2022-09-05T20:51:00.620Z,11.50
2022-09-05T20:54:27.329Z,11.40
2022-09-05T20:54:28.126Z,11.50
2022-09-05T20:56:39.113Z,11.40
2022-09-05T20:59:12.495Z,11.40
2022-09-05T21:01:42.637Z,11.30
2022-09-05T21:04:10.364Z,11.30
2022-09-05T21:06:41.375Z,11.30
2022-09-05T21:09:11.310Z,11.60
2022-09-05T21:11:39.190Z,11.20
2022-09-05T21:14:06.598Z,11.20
2022-09-05T21:17:01.312Z,11.20
2022-09-05T21:19:42.179Z,11.20
2022-09-05T21:22:17.776Z,11.10
2022-09-05T21:24:46.627Z,11.10
2022-09-05T21:27:25.067Z,11.10
2022-09-05T21:29:59.055Z,11.10
2022-09-05T21:32:34.763Z,11.00
2022-09-05T21:35:33.654Z,14.00
2022-09-05T21:37:58.232Z,11.00
2022-09-05T21:40:25.662Z,11.00
2022-09-05T21:47:34.367Z,11.00
2022-09-05T21:47:42.894Z,10.90
2022-09-05T21:48:28.045Z,10.90
2022-09-05T21:51:00.085Z,10.90
2022-09-05T21:56:58.771Z,10.80
2022-09-05T21:59:17.910Z,10.80
2022-09-05T21:59:26.137Z,10.80
2022-09-05T22:01:56.289Z,10.70
2022-09-05T22:04:23.642Z,10.70
2022-09-05T22:06:53.129Z,10.70
2022-09-05T22:09:23.628Z,10.70
2022-09-05T22:11:51.349Z,10.70
2022-09-05T22:14:24.446Z,10.60
2022-09-05T22:16:57.379Z,10.60
2022-09-05T22:19:37.613Z,11.00
2022-09-05T22:22:17.685Z,10.60
2022-09-05T22:24:59.473Z,11.40
2022-09-05T22:27:28.414Z,10.50
2022-09-05T22:29:57.047Z,10.50
2022-09-05T22:32:34.076Z,10.50
2022-09-05T22:35:27.391Z,10.50
2022-09-05T22:37:59.813Z,10.40
2022-09-05T22:40:28.990Z,10.40
2022-09-05T22:43:01.555Z,10.30
2022-09-05T22:45:30.951Z,10.40
2022-09-05T22:47:59.425Z,10.30
2022-09-05T22:50:27.048Z,12.50
2022-09-05T22:52:54.386Z,10.30
2022-09-05T22:55:21.487Z,10.30
2022-09-05T22:57:48.634Z,10.30
2022-09-05T23:00:16.050Z,10.40
2022-09-05T23:02:43.147Z,10.30
2022-09-05T23:05:10.369Z,10.20
2022-09-05T23:07:37.639Z,10.20
2022-09-05T23:10:05.273Z,10.20
2022-09-05T23:12:36.604Z,10.10
2022-09-05T23:15:04.268Z,10.10
2022-09-05T23:17:31.662Z,10.10
2022-09-05T23:19:58.958Z,10.10
2022-09-05T23:22:26.286Z,10.00
2022-09-05T23:24:53.415Z,10.00
2022-09-05T23:27:20.562Z,9.90
2022-09-05T23:29:47.972Z,9.90
2022-09-05T23:32:15.118Z,9.90
2022-09-05T23:34:42.395Z,9.90
2022-09-05T23:37:09.641Z,10.20
2022-09-05T23:39:37.180Z,9.80
2022-09-05T23:42:04.456Z,9.80
2022-09-05T23:44:31.799Z,9.80
2022-09-05T23:46:58.832Z,9.90
2022-09-05T23:49:25.881Z,9.70
2022-09-05T23:51:54.149Z,9.70
2022-09-05T23:54:21.289Z,9.70
2022-09-05T23:56:48.499Z,9.70
2022-09-05T23:59:15.752Z,9.70
